My Meet Scores
Adyson Gray, Aspire Gymnastics Academy - MyMeetScores.com
Top100 | Top Teams | Upcoming Meets | Completed Meets | Latest | Add Scores | Help| Support | Bookmark and Share

Adyson Gray, Aspire Gymnastics Academy
Personal Bests
LevelVault BarsBeamFloorAA
39.5259.150 9.4009.62537.550
49.3509.150 9.2759.20035.525
Meet Scores
Date Meet Team Session Level Division Vault Bars Beam Floor AA
2019-02-23 Kinetic Classic 2019 Aspire Gymnastics Academy 1 4 Younger 8.600 399* 9.150 211T 8.925 305T 8.650 437T 35.325 323T
2019-02-15 Big ClassicBIG CLASSIC Aspire Gymnastics Academy 5A 4 Child A 8.650 3 9.000 2 8.550 9 8.775 3 34.975 4
2019-01-25 UGA Invitational Aspire Gymnastics Academy B06 4 Ch A 8.550 4 8.650 8 9.275 2T 8.850 2 35.325 2
2019-01-18 2019 Bravo Classic Aspire Gymnastics Academy 3B 4 Child 9.000 17T 8.200 21 8.850 12 8.525 20 34.575 20
2018-12-14 2018 Aspire Classic Aspire Gymnastics Academy 5A 4 Younger 8.850 10 8.900 10 8.925 18T 8.850 21 35.525 16
2018-12-07 St. Nick Invite 2018 Aspire Gymnastics Academy 6A 4 JrA 9.350 1 8.725 4 8.300 12 8.950 6 35.325 2
2018-11-17 Paul Hamm Thanksgiving Class WOMENS Aspire Gymnastics Academy 6 4 Younger 8.750 12 9.000 12 8.200 23 9.200 9T 35.150 16T
2018-05-03 Illinois USA Gymnastics Level 3 State Championships Aspire Gymnastics Academy 8 3 Ch E 9.525 8T 9.125 19 9.275 3T 9.625 1 37.550 4T
2018-02-16 Big Classic Aspire Gymnastics Academy 1B 3 Child A 8.850 13 9.150 8T 8.925 8T 9.325 6T 36.250 8
2018-01-26 2018 UGA Classic Aspire Gymnastics Academy A8 3 Jr A 9.000 10T 8.650 6 9.400 2 9.450 2 36.500 3
2018-01-19 2018 Bravo Classic Aspire Gymnastics Academy 7B 3 Jr 8.950 15 8.650 12T 9.200 4 9.275 7 36.075 10T
2017-12-15 2017 Aspire Classic Aspire Gymnastics Academy 11A 3 Younger 9.450 6 8.700 10T 7.825 15 8.900 11 34.875 12
2017-12-08 St. Nick Invite Aspire Gymnastics Academy 5A 3 JrA 8.525 14 8.850 8 8.300 14 8.875 5 34.550 12
2017-11-16 Paul Hamm Thanksgiving Classic - Women Aspire Gymnastics Academy 1 3 Middle 8.725 17 8.750 11T 9.125 3 9.200 4T 35.800 5
2017-02-24 Kinetic Classic Aspire Gymnastics Academy 4,5,6,7 3 All Ages 8.700 103T 7.350 113T 7.950 106 8.700 83T 32.700 109T
2017-02-18 2017 Great Western Invitational Women's Aspire Gymnastics Academy 1 3 Filly 8.775 16 7.950 19 8.300 15 8.750 17 33.775 18
2017-01-27 2017 UGA Invitational Aspire Gymnastics Academy B7 3 Jr A 8.350 14T 8.250 12 7.975 15 8.250 12T 32.825 14
2017-01-20 2017 Bravo Classic Aspire Gymnastics Academy 11B 3 6-7yrs 8.850 10T 8.200 14 8.250 12T 7.200 14 32.500 14
2016-12-16 2016 Aspire Classic Aspire Gymnastics Academy 11 3 Younger 6.000 18 8.050 15 7.700 14T 7.950 16 29.700 18
2016-12-09 St. Nick Invite Aspire Gymnastics Academy 5 3 All 8.550 84T 7.150 89 8.000 86 7.650 86 31.350 89
2016-11-19 Paul Hamm Thanksgiving Classic - 2016 Girls Aspire Gymnastics Academy 5 3 6-7 yrs 8.000 14T 7.900 10 7.800 11T 7.200 16 30.900 14
Click here to view our personalized
"Celebrate Your Season"
2018-19 Collection

www.lazysuits.com